createdAt,value
2022-10-25T00:01:01.629Z,7.88
2022-10-25T00:06:04.948Z,2.25
2022-10-25T00:11:09.132Z,5.32
2022-10-25T00:16:16.538Z,8.00
2022-10-25T00:21:19.998Z,5.88
2022-10-25T00:26:23.739Z,5.55
2022-10-25T00:31:28.231Z,5.18
2022-10-25T00:36:31.949Z,3.53
2022-10-25T00:41:35.427Z,5.95
2022-10-25T00:46:39.891Z,4.95
2022-10-25T00:51:47.176Z,3.05
2022-10-25T00:56:50.856Z,6.60
2022-10-25T01:01:56.442Z,8.43
2022-10-25T01:06:59.985Z,9.82
2022-10-25T01:12:04.902Z,9.73
2022-10-25T01:17:20.053Z,7.00
2022-10-25T01:33:12.090Z,2.95
2022-10-25T01:38:30.974Z,4.53
2022-10-25T01:43:39.027Z,4.13
2022-10-25T01:48:48.583Z,5.80
2022-10-25T01:53:53.413Z,4.72
2022-10-25T01:59:17.894Z,4.90
2022-10-25T02:04:25.611Z,3.63
2022-10-25T02:09:31.913Z,3.20
2022-10-25T02:14:37.214Z,5.60
2022-10-25T02:19:45.287Z,6.18
2022-10-25T02:24:50.272Z,3.78
2022-10-25T02:29:55.965Z,7.10
2022-10-25T02:35:02.104Z,6.63
2022-10-25T02:40:06.871Z,2.85
2022-10-25T02:45:14.808Z,7.70
2022-10-25T02:50:21.414Z,7.70
2022-10-25T02:55:24.808Z,2.88
2022-10-25T03:00:29.676Z,6.78
2022-10-25T03:05:35.404Z,4.97
2022-10-25T03:10:40.316Z,6.22
2022-10-25T03:15:45.744Z,6.80
2022-10-25T03:20:50.682Z,9.77
2022-10-25T03:25:54.574Z,4.43
2022-10-25T03:30:59.009Z,3.85
2022-10-25T03:36:03.775Z,4.93
2022-10-25T03:41:07.844Z,6.35
2022-10-25T03:46:12.059Z,6.22
2022-10-25T03:51:19.732Z,6.43
2022-10-25T03:56:24.147Z,7.85
2022-10-25T04:01:28.281Z,10.55
2022-10-25T04:07:05.737Z,6.65
2022-10-25T04:12:20.527Z,7.60
2022-10-25T04:17:44.922Z,4.93
2022-10-25T04:23:09.262Z,6.55
2022-10-25T04:28:12.482Z,6.63
2022-10-25T04:33:19.850Z,5.50
2022-10-25T04:38:34.196Z,8.93
2022-10-25T04:43:50.520Z,5.88
2022-10-25T04:48:59.577Z,6.55
2022-10-25T04:54:57.279Z,5.68
2022-10-25T05:00:05.966Z,9.70
2022-10-25T05:05:31.342Z,6.43
2022-10-25T05:16:09.345Z,5.38
2022-10-25T05:21:13.560Z,4.95
2022-10-25T05:26:22.517Z,6.57
2022-10-25T05:31:29.272Z,5.15
2022-10-25T05:36:58.114Z,6.15
2022-10-25T05:42:26.258Z,6.40
2022-10-25T05:47:57.383Z,6.93
2022-10-25T05:53:17.932Z,7.43
2022-10-25T05:59:23.226Z,6.68
2022-10-25T06:04:52.813Z,8.23
2022-10-25T06:10:31.667Z,7.70
2022-10-25T06:16:05.069Z,9.70
2022-10-25T06:21:33.517Z,11.02
2022-10-25T06:27:07.824Z,11.70
2022-10-25T06:32:33.550Z,8.95
2022-10-25T06:38:01.129Z,10.00
2022-10-25T06:43:22.450Z,9.55
2022-10-25T06:48:33.294Z,6.00
2022-10-25T07:05:06.447Z,8.85
2022-10-25T07:10:22.329Z,6.47
2022-10-25T07:15:59.871Z,8.18
2022-10-25T07:21:13.110Z,11.02
2022-10-25T07:26:34.998Z,6.93
2022-10-25T07:31:58.582Z,5.55
2022-10-25T07:37:46.369Z,7.05
2022-10-25T07:43:19.544Z,6.47
2022-10-25T07:48:26.564Z,5.55
2022-10-25T07:53:31.608Z,10.38
2022-10-25T07:58:38.550Z,7.93
2022-10-25T08:03:42.093Z,8.00
2022-10-25T08:08:47.537Z,4.35
2022-10-25T08:13:51.199Z,10.15
2022-10-25T08:18:54.673Z,8.98
2022-10-25T08:24:00.391Z,3.83
2022-10-25T08:29:06.009Z,5.38
2022-10-25T08:39:17.473Z,3.75
2022-10-25T08:44:44.878Z,3.72
2022-10-25T08:49:52.788Z,8.95
2022-10-25T08:55:04.781Z,4.25
2022-10-25T09:00:14.328Z,8.57
2022-10-25T09:05:22.976Z,11.07
2022-10-25T09:10:38.113Z,9.32
2022-10-25T09:15:48.361Z,10.38
2022-10-25T09:20:52.113Z,7.88
2022-10-25T09:26:03.101Z,4.22
2022-10-25T09:31:06.632Z,7.07
2022-10-25T09:36:17.115Z,4.85
2022-10-25T09:41:23.910Z,3.75
2022-10-25T09:46:29.012Z,5.13
2022-10-25T09:51:34.896Z,6.20
2022-10-25T09:56:40.442Z,4.72
2022-10-25T10:01:43.580Z,5.05
2022-10-25T10:06:48.109Z,6.50
2022-10-25T10:11:53.627Z,7.68
2022-10-25T10:16:58.046Z,3.35
2022-10-25T10:22:02.050Z,4.13
2022-10-25T10:27:08.195Z,6.57
2022-10-25T10:32:24.726Z,6.70
2022-10-25T10:37:28.716Z,6.03
2022-10-25T10:42:38.430Z,8.98
2022-10-25T10:47:43.505Z,6.22
2022-10-25T10:52:46.989Z,8.13
2022-10-25T10:57:52.897Z,3.33
2022-10-25T11:08:00.144Z,2.75
2022-10-25T11:13:12.667Z,4.15
2022-10-25T11:18:21.189Z,2.80
2022-10-25T11:23:27.513Z,3.78
2022-10-25T11:28:41.370Z,3.33
2022-10-25T11:33:49.996Z,5.85
2022-10-25T11:39:01.897Z,5.00
2022-10-25T11:44:31.241Z,3.80
2022-10-25T11:49:48.607Z,7.45
2022-10-25T11:54:54.482Z,4.20
2022-10-25T12:00:02.906Z,2.67
2022-10-25T12:05:16.437Z,3.92
2022-10-25T12:10:23.134Z,1.95
2022-10-25T12:15:35.490Z,2.60
2022-10-25T12:20:39.906Z,2.65
2022-10-25T12:25:45.329Z,3.70
2022-10-25T12:30:50.245Z,3.42
2022-10-25T12:36:10.715Z,4.78
2022-10-25T12:41:19.099Z,1.90
2022-10-25T12:46:57.688Z,5.03
2022-10-25T12:52:08.915Z,5.97
2022-10-25T12:57:17.811Z,3.85
2022-10-25T13:02:40.340Z,8.55
2022-10-25T13:07:43.472Z,3.03
2022-10-25T13:12:59.668Z,3.35
2022-10-25T13:18:07.741Z,4.28
2022-10-25T13:23:45.817Z,3.55
2022-10-25T13:28:49.821Z,4.47
2022-10-25T13:34:38.188Z,1.55
2022-10-25T13:39:49.477Z,5.43
2022-10-25T13:44:56.019Z,2.60
2022-10-25T13:49:59.503Z,3.47
2022-10-25T13:55:15.647Z,2.90
2022-10-25T14:00:34.167Z,3.13
2022-10-25T14:06:11.033Z,4.32
2022-10-25T14:11:19.648Z,4.50
2022-10-25T14:16:25.471Z,4.75
2022-10-25T14:21:28.687Z,3.70
2022-10-25T14:26:33.835Z,3.22
2022-10-25T14:31:37.264Z,4.97
2022-10-25T14:36:41.628Z,2.33
2022-10-25T14:41:51.448Z,3.15
2022-10-25T14:46:57.694Z,2.67
2022-10-25T14:52:01.810Z,4.93
2022-10-25T14:57:10.002Z,7.32
2022-10-25T15:02:17.520Z,5.20
2022-10-25T15:07:30.157Z,3.13
2022-10-25T15:12:34.934Z,2.47
2022-10-25T15:17:38.669Z,1.45
2022-10-25T15:22:44.351Z,2.83
2022-10-25T15:27:50.963Z,4.55
2022-10-25T15:32:59.390Z,4.22
2022-10-25T15:38:03.622Z,2.53
2022-10-25T15:43:09.004Z,3.22
2022-10-25T15:48:19.251Z,3.45
2022-10-25T15:53:23.453Z,4.00
2022-10-25T15:58:31.610Z,3.97
2022-10-25T16:03:37.170Z,5.97
2022-10-25T16:08:40.375Z,8.23
2022-10-25T16:13:45.204Z,5.18
2022-10-25T16:18:48.933Z,7.82
2022-10-25T16:23:52.285Z,5.43
2022-10-25T16:28:56.785Z,8.50
2022-10-25T16:33:59.943Z,21.98
2022-10-25T16:39:07.816Z,5.03
2022-10-25T16:44:12.828Z,7.00
2022-10-25T16:49:19.343Z,6.15
2022-10-25T16:54:24.247Z,69.18
2022-10-25T16:59:28.991Z,51.28
2022-10-25T17:04:32.160Z,26.65
2022-10-25T17:14:42.366Z,22.33
2022-10-25T17:19:45.665Z,14.38
2022-10-25T17:24:53.729Z,17.83
2022-10-25T17:30:00.494Z,10.32
2022-10-25T17:35:05.639Z,46.67
2022-10-25T17:40:10.361Z,13.50
2022-10-25T17:45:14.961Z,18.48
2022-10-25T17:50:20.220Z,17.23
2022-10-25T17:55:23.222Z,18.83
2022-10-25T18:00:27.695Z,19.50
2022-10-25T18:05:30.793Z,17.48
2022-10-25T18:10:34.280Z,20.30
2022-10-25T18:15:40.161Z,15.50
2022-10-25T18:20:49.203Z,17.00
2022-10-25T18:31:01.536Z,42.25
2022-10-25T18:36:05.845Z,24.08
2022-10-25T18:41:09.441Z,12.48
2022-10-25T18:46:13.809Z,15.35
2022-10-25T18:51:17.661Z,18.20
2022-10-25T18:56:22.293Z,20.48
2022-10-25T19:01:32.732Z,71.50
2022-10-25T19:06:50.173Z,22.33
2022-10-25T19:11:56.509Z,27.58
2022-10-25T19:17:03.603Z,19.07
2022-10-25T19:22:16.094Z,18.55
2022-10-25T19:27:19.493Z,19.00
2022-10-25T19:32:24.015Z,32.90
2022-10-25T19:37:27.989Z,30.30
2022-10-25T19:42:31.106Z,28.40
2022-10-25T19:47:42.536Z,20.88
2022-10-25T19:52:46.527Z,36.63
2022-10-25T19:57:49.993Z,53.90
2022-10-25T20:02:55.051Z,36.80
2022-10-25T20:07:58.396Z,29.83
2022-10-25T20:13:16.685Z,24.48
2022-10-25T20:18:22.795Z,18.63
2022-10-25T20:23:26.273Z,21.30
2022-10-25T20:28:33.120Z,16.02
2022-10-25T20:33:40.123Z,10.35
2022-10-25T20:38:43.691Z,18.55
2022-10-25T20:43:47.958Z,21.08
2022-10-25T20:48:52.994Z,17.25
2022-10-25T20:53:56.902Z,14.43
2022-10-25T20:58:59.995Z,16.42
2022-10-25T21:04:04.510Z,17.58
2022-10-25T21:09:08.198Z,19.58
2022-10-25T21:14:12.250Z,21.05
2022-10-25T21:19:16.942Z,13.15
2022-10-25T21:24:20.042Z,15.77
2022-10-25T21:29:23.054Z,19.90
2022-10-25T21:34:27.405Z,11.30
2022-10-25T21:39:30.507Z,18.95
2022-10-25T21:44:33.575Z,15.50
2022-10-25T21:49:38.285Z,15.93
2022-10-25T21:54:41.767Z,18.95
2022-10-25T21:59:44.816Z,16.15
2022-10-25T22:04:49.604Z,19.55
2022-10-25T22:09:53.176Z,11.93
2022-10-25T22:14:57.358Z,13.77
2022-10-25T22:20:02.421Z,10.93
2022-10-25T22:25:06.206Z,13.18
2022-10-25T22:30:10.610Z,13.40
2022-10-25T22:35:15.123Z,11.30
2022-10-25T22:40:18.248Z,13.82
2022-10-25T22:45:21.582Z,12.63
2022-10-25T22:50:26.067Z,10.02
2022-10-25T22:55:29.261Z,10.95
2022-10-25T23:00:32.711Z,12.80
2022-10-25T23:05:38.300Z,14.10
2022-10-25T23:10:41.829Z,9.30
2022-10-25T23:15:45.243Z,11.50
2022-10-25T23:20:52.971Z,17.38
2022-10-25T23:25:56.631Z,17.38
2022-10-25T23:31:04.870Z,10.95
2022-10-25T23:36:14.268Z,9.50
2022-10-25T23:41:17.913Z,12.05
2022-10-25T23:46:21.054Z,9.50
2022-10-25T23:51:25.878Z,13.07
2022-10-25T23:56:28.918Z,10.32
